Time;durP1;ratioP1;P1;durP2;ratioP2;P2;SDS_P1;SDS_P2;PMS_P1;PMS_P2;Temp;Humidity;BMP_temperature;BMP_pressure;BME280_temperature;BME280_humidity;BME280_pressure;Samples;Min_cycle;Max_cycle;Signal;HPM_P1;HPM_P2
2022/10/13 00:01:13;;;;;;;1999.90;999.90;;;9.70;99.90;;;;;;5089758;28;20035;-66
2022/10/13 00:03:40;;;;;;;1999.90;999.90;;;9.70;99.90;;;;;;5108759;28;20084;-65
2022/10/13 00:06:08;;;;;;;1999.90;999.90;;;9.70;99.90;;;;;;5105724;28;20087;-66
2022/10/13 00:08:34;;;;;;;1999.90;999.90;;;9.70;99.90;;;;;;5108397;28;20088;-65
2022/10/13 00:11:00;;;;;;;1999.90;999.90;;;9.70;99.90;;;;;;5090370;28;20067;-66
2022/10/13 00:13:26;;;;;;;1999.90;999.90;;;9.70;99.90;;;;;;5107775;28;20038;-65
2022/10/13 00:15:53;;;;;;;1999.90;999.90;;;9.70;99.90;;;;;;5107563;28;20089;-65
2022/10/13 00:18:18;;;;;;;1999.90;999.90;;;9.80;99.90;;;;;;5113178;27;20480;-66
2022/10/13 00:20:47;;;;;;;1999.90;999.90;;;9.80;99.90;;;;;;5108209;28;20088;-65
2022/10/13 00:23:13;;;;;;;1999.90;999.90;;;9.80;99.90;;;;;;5091558;28;20043;-66
2022/10/13 00:25:47;;;;;;;1999.90;999.90;;;9.80;99.90;;;;;;5107130;28;20054;-66
2022/10/13 00:28:14;;;;;;;1999.90;999.90;;;9.80;99.90;;;;;;5107897;27;20051;-66
2022/10/13 00:30:40;;;;;;;1999.90;999.90;;;9.80;99.90;;;;;;5107972;28;20111;-66
2022/10/13 00:33:07;;;;;;;1999.90;999.90;;;9.80;99.90;;;;;;5107858;28;20110;-66
2022/10/13 00:35:33;;;;;;;1999.90;999.90;;;9.80;99.90;;;;;;5107665;28;20080;-65
2022/10/13 00:37:59;;;;;;;1999.90;999.90;;;9.80;99.90;;;;;;5109056;28;20070;-66
2022/10/13 00:40:25;;;;;;;1999.90;999.90;;;9.80;99.90;;;;;;5087701;28;20035;-65
2022/10/13 00:42:50;;;;;;;1999.90;999.90;;;9.80;99.90;;;;;;5087266;28;20100;-66
2022/10/13 00:45:34;;;;;;;1999.90;999.90;;;9.80;99.90;;;;;;5085277;28;20560;-66
2022/10/13 00:48:00;;;;;;;1999.90;999.90;;;9.80;99.90;;;;;;5108244;28;20130;-65
2022/10/13 00:50:36;;;;;;;1999.90;999.90;;;9.80;99.90;;;;;;5107255;28;20454;-66
2022/10/13 00:53:03;;;;;;;1999.90;999.90;;;9.80;99.90;;;;;;5090235;28;20532;-65
2022/10/13 00:55:32;;;;;;;1999.90;999.90;;;9.80;99.90;;;;;;5105831;28;20369;-66
2022/10/13 00:58:00;;;;;;;1999.90;999.90;;;9.80;99.90;;;;;;5107620;28;20071;-66
2022/10/13 01:00:28;;;;;;;1999.90;999.90;;;9.80;99.90;;;;;;5086753;28;20036;-66
2022/10/13 01:02:54;;;;;;;1999.90;999.90;;;9.80;99.90;;;;;;5107146;28;20043;-66
2022/10/13 01:05:21;;;;;;;1999.90;999.90;;;9.80;99.90;;;;;;5107703;28;20489;-66
2022/10/13 01:07:49;;;;;;;1999.90;999.90;;;9.80;99.90;;;;;;5089004;28;20458;-66
2022/10/13 01:10:23;;;;;;;1999.90;999.90;;;9.70;99.90;;;;;;5108274;28;20031;-66
2022/10/13 01:12:52;;;;;;;1999.90;999.90;;;9.70;99.90;;;;;;5079486;28;20047;-66
2022/10/13 01:15:35;;;;;;;1999.90;999.90;;;9.70;99.90;;;;;;5105164;28;20448;-66
2022/10/13 01:18:12;;;;;;;1999.90;999.90;;;9.70;99.90;;;;;;5107965;28;20039;-66
2022/10/13 01:21:12;;;;;;;1999.90;999.90;;;9.70;99.90;;;;;;5096451;28;20050;-66
2022/10/13 01:24:00;;;;;;;1999.90;999.90;;;9.70;99.90;;;;;;5099572;28;20058;-66
2022/10/13 01:26:56;;;;;;;1999.90;999.90;;;9.80;99.90;;;;;;5097566;28;20048;-66
2022/10/13 01:29:43;;;;;;;1999.90;999.90;;;9.80;99.90;;;;;;5096525;27;20043;-66
2022/10/13 01:32:30;;;;;;;1999.90;999.90;;;9.80;99.90;;;;;;5105645;28;20039;-66
2022/10/13 01:35:27;;;;;;;1999.90;999.90;;;9.80;99.90;;;;;;5103568;27;20042;-66
2022/10/13 01:38:13;;;;;;;1999.90;999.90;;;9.80;99.90;;;;;;5111084;28;20047;-66
2022/10/13 01:41:01;;;;;;;1999.90;999.90;;;9.90;99.90;;;;;;5078720;28;20091;-66
2022/10/13 01:43:44;;;;;;;1999.90;999.90;;;9.90;99.90;;;;;;5073102;28;20055;-66
2022/10/13 01:46:18;;;;;;;1999.90;999.90;;;9.90;99.90;;;;;;5088861;28;20039;-66
2022/10/13 01:48:45;;;;;;;1999.90;999.90;;;9.80;99.90;;;;;;5119415;27;20529;-66
2022/10/13 01:51:15;;;;;;;1999.90;999.90;;;9.90;99.90;;;;;;5111238;28;20392;-65
2022/10/13 01:53:42;;;;;;;1999.90;999.90;;;9.90;99.90;;;;;;5103326;27;20082;-65
2022/10/13 01:56:08;;;;;;;1999.90;999.90;;;9.90;99.90;;;;;;5073998;27;20125;-65
2022/10/13 01:58:35;;;;;;;1999.90;999.90;;;9.90;99.90;;;;;;5124933;27;20103;-65
2022/10/13 02:01:31;;;;;;;1999.90;999.90;;;9.90;99.90;;;;;;5062691;28;20131;-65
2022/10/13 02:04:20;;;;;;;1999.90;999.90;;;9.90;99.90;;;;;;5098626;27;20040;-65
2022/10/13 02:07:04;;;;;;;1999.90;999.90;;;9.80;99.90;;;;;;5106788;27;20067;-65
2022/10/13 02:09:46;;;;;;;1999.90;999.90;;;9.80;99.90;;;;;;5092306;28;20035;-65
2022/10/13 02:12:19;;;;;;;1999.90;999.90;;;9.90;99.90;;;;;;5096958;28;20457;-65
2022/10/13 02:14:45;;;;;;;1999.90;999.90;;;9.80;99.90;;;;;;5095082;27;20028;-64
2022/10/13 02:17:12;;;;;;;1999.90;999.90;;;9.80;99.90;;;;;;5118186;27;20047;-65
2022/10/13 02:19:38;;;;;;;1999.90;999.90;;;9.80;99.90;;;;;;5110177;28;20047;-65
2022/10/13 02:22:05;;;;;;;1999.90;999.90;;;9.80;99.90;;;;;;5110192;27;20160;-65
2022/10/13 02:24:32;;;;;;;1999.90;999.90;;;9.80;99.90;;;;;;5110704;28;20066;-65
2022/10/13 02:26:57;;;;;;;1999.90;999.90;;;9.80;99.90;;;;;;5096000;27;20124;-65
2022/10/13 02:29:23;;;;;;;1999.90;999.90;;;9.80;99.90;;;;;;5112637;27;20536;-65
2022/10/13 02:31:49;;;;;;;1999.90;999.90;;;9.70;99.90;;;;;;5119194;27;20032;-64
2022/10/13 02:34:15;;;;;;;1999.90;999.90;;;9.80;99.90;;;;;;5074261;28;20089;-65
2022/10/13 02:36:40;;;;;;;1999.90;999.90;;;9.70;99.90;;;;;;5081096;28;20052;-65
2022/10/13 02:39:08;;;;;;;1999.90;999.90;;;9.70;99.90;;;;;;5110126;27;20083;-65
2022/10/13 02:41:34;;;;;;;1999.90;999.90;;;9.80;99.90;;;;;;5099666;28;20045;-65
2022/10/13 02:44:00;;;;;;;1999.90;999.90;;;9.70;99.90;;;;;;5091136;28;20047;-65
2022/10/13 02:46:26;;;;;;;1999.90;999.90;;;9.70;99.90;;;;;;5117251;27;20053;-65
2022/10/13 02:48:52;;;;;;;1999.90;999.90;;;9.80;99.90;;;;;;5092463;28;20047;-65
2022/10/13 02:51:17;;;;;;;1999.90;999.90;;;9.80;99.90;;;;;;5106393;28;20040;-65
2022/10/13 02:53:43;;;;;;;1999.90;999.90;;;9.80;99.90;;;;;;5100261;28;20089;-65
2022/10/13 02:56:08;;;;;;;1999.90;999.90;;;9.80;99.90;;;;;;5095823;28;20455;-65
2022/10/13 02:58:34;;;;;;;1999.90;999.90;;;9.80;99.90;;;;;;5107801;27;20416;-65
2022/10/13 03:01:07;;;;;;;1999.90;999.90;;;9.80;99.90;;;;;;5104184;28;20032;-65
2022/10/13 03:03:34;;;;;;;1999.90;999.90;;;9.80;99.90;;;;;;5074464;28;20058;-65
2022/10/13 03:05:59;;;;;;;1999.90;999.90;;;9.80;99.90;;;;;;5091504;28;20063;-65
2022/10/13 03:08:25;;;;;;;1999.90;999.90;;;9.80;99.90;;;;;;5091174;28;20074;-65
2022/10/13 03:10:51;;;;;;;1999.90;999.90;;;9.80;99.90;;;;;;5109950;28;20047;-65
2022/10/13 03:13:17;;;;;;;1999.90;999.90;;;9.90;99.90;;;;;;5112808;27;20110;-64
2022/10/13 03:15:42;;;;;;;1999.90;999.90;;;9.90;99.90;;;;;;5109580;28;20048;-65
2022/10/13 03:18:08;;;;;;;1999.90;999.90;;;9.90;99.90;;;;;;5090846;28;20130;-65
2022/10/13 03:20:34;;;;;;;1999.90;999.90;;;9.90;99.90;;;;;;5091460;28;20122;-65
2022/10/13 03:22:59;;;;;;;1999.90;999.90;;;9.90;99.90;;;;;;5074686;28;20501;-65
2022/10/13 03:25:25;;;;;;;1999.90;999.90;;;9.90;99.90;;;;;;5072987;28;20504;-65
2022/10/13 03:27:50;;;;;;;1999.90;999.90;;;9.90;99.90;;;;;;5111377;27;20610;-65
2022/10/13 03:30:16;;;;;;;1999.90;999.90;;;9.90;99.90;;;;;;5102501;27;20053;-65
2022/10/13 03:32:42;;;;;;;1999.90;999.90;;;9.90;99.90;;;;;;5092663;28;20254;-65
2022/10/13 03:35:08;;;;;;;1999.90;999.90;;;9.90;99.90;;;;;;5108605;27;20404;-65
2022/10/13 03:37:33;;;;;;;1999.90;999.90;;;9.90;99.90;;;;;;5090382;28;20126;-65
2022/10/13 03:39:59;;;;;;;1999.90;999.90;;;9.90;99.90;;;;;;5095146;27;20107;-65
2022/10/13 03:42:24;;;;;;;1999.90;999.90;;;10.00;99.90;;;;;;5110139;27;20040;-65
2022/10/13 03:44:50;;;;;;;1999.90;999.90;;;9.90;99.90;;;;;;5100113;28;20055;-65
2022/10/13 03:47:15;;;;;;;1999.90;999.90;;;9.90;99.90;;;;;;5086740;28;20043;-65
2022/10/13 03:49:41;;;;;;;1999.90;999.90;;;9.90;99.90;;;;;;5090272;28;20501;-65
2022/10/13 03:52:07;;;;;;;1999.90;999.90;;;9.90;99.90;;;;;;5095469;28;20036;-65
2022/10/13 03:54:32;;;;;;;1999.90;999.90;;;9.90;99.90;;;;;;5104212;27;20071;-65
2022/10/13 03:56:58;;;;;;;1999.90;999.90;;;9.90;99.90;;;;;;5113193;27;20042;-65
2022/10/13 03:59:24;;;;;;;1999.90;999.90;;;9.90;99.90;;;;;;5112259;27;20046;-65
2022/10/13 04:01:49;;;;;;;1999.90;999.90;;;9.90;99.90;;;;;;5094663;28;20131;-65
2022/10/13 04:04:15;;;;;;;1999.90;999.90;;;9.90;99.90;;;;;;5113543;27;20027;-65
2022/10/13 04:06:41;;;;;;;1999.90;999.90;;;9.90;99.90;;;;;;5109385;27;20043;-65
2022/10/13 04:09:06;;;;;;;1999.90;999.90;;;9.90;99.90;;;;;;5113682;27;20086;-65
2022/10/13 04:11:33;;;;;;;1999.90;999.90;;;9.90;99.90;;;;;;5100212;28;20128;-64
2022/10/13 04:13:58;;;;;;;1999.90;999.90;;;9.90;99.90;;;;;;5090832;28;20043;-65
2022/10/13 04:16:26;;;;;;;1999.90;999.90;;;9.90;99.90;;;;;;5089686;28;20520;-65
2022/10/13 04:19:00;;;;;;;1999.90;999.90;;;9.90;99.90;;;;;;5078033;28;20043;-65
2022/10/13 04:21:26;;;;;;;1999.90;999.90;;;9.80;99.90;;;;;;5112374;27;20220;-65
2022/10/13 04:23:58;;;;;;;1999.90;999.90;;;9.90;99.90;;;;;;5108185;27;20576;-65
2022/10/13 04:26:26;;;;;;;1999.90;999.90;;;9.80;99.90;;;;;;5108430;28;20047;-65
2022/10/13 04:28:53;;;;;;;1999.90;999.90;;;9.80;99.90;;;;;;5121158;27;20445;-65
2022/10/13 04:31:21;;;;;;;1999.90;999.90;;;9.90;99.90;;;;;;5108639;28;20377;-65
2022/10/13 04:33:47;;;;;;;1999.90;999.90;;;9.90;99.90;;;;;;5107689;28;20040;-65
2022/10/13 04:36:14;;;;;;;1999.90;999.90;;;9.90;99.90;;;;;;5108382;28;20151;-65
2022/10/13 04:38:40;;;;;;;1999.90;999.90;;;9.90;99.90;;;;;;5105449;28;20445;-65
2022/10/13 04:41:07;;;;;;;1999.90;999.90;;;9.90;99.90;;;;;;5106943;28;20038;-65
2022/10/13 04:43:33;;;;;;;1999.90;999.90;;;9.90;99.90;;;;;;5100749;28;20641;-65
2022/10/13 04:46:00;;;;;;;1999.90;999.90;;;9.90;99.90;;;;;;5126399;27;20058;-65
2022/10/13 04:48:26;;;;;;;1999.90;999.90;;;9.90;99.90;;;;;;5110783;27;20052;-65
2022/10/13 04:51:02;;;;;;;1999.90;999.90;;;9.90;99.90;;;;;;5091490;28;20042;-66
2022/10/13 04:53:29;;;;;;;1999.90;999.90;;;9.90;99.90;;;;;;5101513;28;20043;-65
2022/10/13 04:55:55;;;;;;;1999.90;999.90;;;9.90;99.90;;;;;;5107158;28;20047;-65
2022/10/13 04:58:21;;;;;;;1999.90;999.90;;;9.90;99.90;;;;;;5116429;28;20047;-65
2022/10/13 05:00:47;;;;;;;1999.90;999.90;;;9.90;99.90;;;;;;5086772;27;20488;-64
2022/10/13 05:03:13;;;;;;;1999.90;999.90;;;9.90;99.90;;;;;;5087936;28;20098;-64
2022/10/13 05:05:38;;;;;;;1999.90;999.90;;;10.00;99.90;;;;;;5115770;28;20034;-64
2022/10/13 05:08:04;;;;;;;1999.90;999.90;;;10.00;99.90;;;;;;5112988;28;20042;-64
2022/10/13 05:10:30;;;;;;;1999.90;999.90;;;10.00;99.90;;;;;;5111842;28;20144;-64
2022/10/13 05:12:55;;;;;;;1999.90;999.90;;;10.00;99.90;;;;;;5094185;28;20044;-64
2022/10/13 05:15:21;;;;;;;1999.90;999.90;;;10.00;99.90;;;;;;5096303;28;20490;-67
2022/10/13 05:17:47;;;;;;;1999.90;999.90;;;10.00;99.90;;;;;;5107056;28;20580;-67
2022/10/13 05:20:12;;;;;;;1999.90;999.90;;;10.00;99.90;;;;;;5093305;28;20093;-67
2022/10/13 05:22:38;;;;;;;1999.90;999.90;;;10.00;99.90;;;;;;5077618;28;20084;-64
2022/10/13 05:25:03;;;;;;;1999.90;999.90;;;10.00;99.90;;;;;;5090629;28;20047;-67
2022/10/13 05:27:29;;;;;;;1999.90;999.90;;;10.00;99.90;;;;;;5107484;28;20043;-67
2022/10/13 05:29:54;;;;;;;1999.90;999.90;;;10.00;99.90;;;;;;5088913;28;20497;-64
2022/10/13 05:32:20;;;;;;;1999.90;999.90;;;10.00;99.90;;;;;;5094259;28;20520;-66
2022/10/13 05:34:49;;;;;;;1999.90;999.90;;;10.00;99.90;;;;;;5092352;28;20047;-66
2022/10/13 05:37:16;;;;;;;1999.90;999.90;;;10.00;99.90;;;;;;5085934;28;20097;-66
2022/10/13 05:39:42;;;;;;;1999.90;999.90;;;10.00;99.90;;;;;;5108010;28;20036;-66
2022/10/13 05:42:07;;;;;;;1999.90;999.90;;;10.00;99.90;;;;;;5107899;28;20373;-66
2022/10/13 05:44:35;;;;;;;1999.90;999.90;;;10.00;99.90;;;;;;5116813;28;20054;-66
2022/10/13 05:47:00;;;;;;;1999.90;999.90;;;10.00;99.90;;;;;;5117337;28;20068;-64
2022/10/13 05:49:26;;;;;;;1999.90;999.90;;;10.10;99.90;;;;;;5092651;28;20035;-66
2022/10/13 05:51:59;;;;;;;1999.90;999.90;;;10.10;99.90;;;;;;5080919;28;20040;-66
2022/10/13 05:54:29;;;;;;;;;;;10.10;99.90;;;;;;5114661;28;20111;-66
2022/10/13 05:57:01;;;;;;;1999.90;999.90;;;10.10;99.90;;;;;;5089569;28;19919;-66
2022/10/13 05:59:29;;;;;;;1999.90;999.90;;;10.10;99.90;;;;;;5092363;28;20630;-66
2022/10/13 06:01:55;;;;;;;1999.90;999.90;;;10.10;99.90;;;;;;5110214;28;20165;-66
2022/10/13 06:04:30;;;;;;;1999.90;999.90;;;10.10;99.90;;;;;;5091474;28;20127;-67
2022/10/13 06:06:56;;;;;;;1999.90;999.90;;;10.10;99.90;;;;;;5100863;28;20046;-66
2022/10/13 06:09:21;;;;;;;1999.90;999.90;;;10.20;99.90;;;;;;5110532;28;20040;-66
2022/10/13 06:11:47;;;;;;;1999.90;999.90;;;10.20;99.90;;;;;;5074341;28;20035;-66
2022/10/13 06:14:12;;;;;;;1999.90;999.90;;;10.20;99.90;;;;;;5112973;28;20071;-64
2022/10/13 06:16:38;;;;;;;1999.90;999.90;;;10.20;99.90;;;;;;5110846;28;20127;-66
2022/10/13 06:19:05;;;;;;;1999.90;999.90;;;10.30;99.90;;;;;;5082047;28;20051;-66
2022/10/13 06:21:32;;;;;;;1999.90;999.90;;;10.30;99.90;;;;;;5096753;28;20043;-66
2022/10/13 06:23:58;;;;;;;1999.90;999.90;;;10.30;99.90;;;;;;5111223;28;20032;-66
2022/10/13 06:26:23;;;;;;;1999.90;999.90;;;10.30;99.90;;;;;;5110325;28;20496;-65
2022/10/13 06:28:49;;;;;;;1999.90;999.90;;;10.40;99.90;;;;;;5092115;28;20199;-66
2022/10/13 06:31:14;;;;;;;1999.90;999.90;;;10.40;99.90;;;;;;5092421;28;20038;-66
2022/10/13 06:33:40;;;;;;;1999.90;999.90;;;10.50;99.90;;;;;;5077660;28;20055;-65
2022/10/13 06:36:06;;;;;;;1999.90;999.90;;;10.50;99.90;;;;;;5075614;28;20039;-67
2022/10/13 06:38:32;;;;;;;1999.90;999.90;;;10.50;99.90;;;;;;5084788;28;20312;-66
2022/10/13 06:41:00;;;;;;;1999.90;999.90;;;10.50;99.90;;;;;;5093309;28;20093;-65
2022/10/13 06:43:26;;;;;;;1999.90;999.90;;;10.50;99.90;;;;;;5109729;28;20421;-67
2022/10/13 06:45:52;;;;;;;1999.90;999.90;;;10.60;99.90;;;;;;5091327;28;20055;-67
2022/10/13 06:48:17;;;;;;;1999.90;999.90;;;10.60;99.90;;;;;;5110067;28;20036;-66
2022/10/13 06:50:43;;;;;;;1999.90;999.90;;;10.60;99.90;;;;;;5109065;28;20557;-66
2022/10/13 06:53:08;;;;;;;1999.90;999.90;;;10.70;99.90;;;;;;5097339;28;20496;-67
2022/10/13 06:55:34;;;;;;;1999.90;999.90;;;10.70;99.90;;;;;;5075084;28;20745;-66
2022/10/13 06:57:59;;;;;;;1999.90;999.90;;;10.70;99.90;;;;;;5090994;28;20069;-66
2022/10/13 07:00:25;;;;;;;1999.90;999.90;;;10.70;99.90;;;;;;5110007;28;20027;-65
2022/10/13 07:02:51;;;;;;;1999.90;999.90;;;10.80;99.90;;;;;;5117923;27;20504;-64
2022/10/13 07:05:17;;;;;;;1999.90;999.90;;;10.80;99.90;;;;;;5091281;28;20363;-65
2022/10/13 07:07:42;;;;;;;1999.90;999.90;;;10.90;99.90;;;;;;5109850;28;20169;-64
2022/10/13 07:10:08;;;;;;;1999.90;999.90;;;11.00;99.90;;;;;;5109627;28;20115;-64
2022/10/13 07:12:34;;;;;;;1999.90;999.90;;;11.00;99.90;;;;;;5097238;28;20042;-65
2022/10/13 07:14:59;;;;;;;1999.90;999.90;;;11.10;99.90;;;;;;5109113;28;20042;-65
2022/10/13 07:17:25;;;;;;;1999.90;999.90;;;11.10;99.90;;;;;;5096045;28;20051;-64
2022/10/13 07:19:51;;;;;;;1999.90;999.90;;;11.20;99.90;;;;;;5113135;27;20500;-65
2022/10/13 07:22:16;;;;;;;1999.90;999.90;;;11.30;99.90;;;;;;5091327;28;20405;-65
2022/10/13 07:24:42;;;;;;;1999.90;999.90;;;11.40;99.90;;;;;;5094291;28;20036;-64
2022/10/13 07:27:07;;;;;;;1999.90;999.90;;;11.50;99.90;;;;;;5109116;28;20039;-64
2022/10/13 07:29:33;;;;;;;1999.90;999.90;;;11.60;99.90;;;;;;5108546;28;20040;-65
2022/10/13 07:31:59;;;;;;;1999.90;999.90;;;11.60;99.90;;;;;;5090980;28;20101;-65
2022/10/13 07:34:24;;;;;;;1999.90;999.90;;;11.70;99.90;;;;;;5098135;27;20039;-67
2022/10/13 07:36:50;;;;;;;1999.90;999.90;;;11.70;99.90;;;;;;5111528;27;20132;-66
2022/10/13 07:39:15;;;;;;;1999.90;999.90;;;11.70;99.90;;;;;;5091127;28;20063;-65
2022/10/13 07:41:41;;;;;;;1999.90;999.90;;;11.70;99.90;;;;;;5097622;28;20070;-65
2022/10/13 07:44:06;;;;;;;1999.90;999.90;;;11.70;99.90;;;;;;5091457;27;20052;-66
2022/10/13 07:46:32;;;;;;;1999.90;999.90;;;11.80;99.90;;;;;;5118006;27;20497;-67
2022/10/13 07:48:58;;;;;;;1999.90;999.90;;;11.80;99.90;;;;;;5091169;27;20050;-67
2022/10/13 07:51:23;;;;;;;1999.90;999.90;;;11.90;99.90;;;;;;5100645;28;20042;-64
2022/10/13 07:53:49;;;;;;;1999.90;999.90;;;11.90;99.90;;;;;;5124036;27;20500;-65
2022/10/13 07:56:15;;;;;;;1999.90;999.90;;;12.10;99.90;;;;;;5101645;27;20031;-67
2022/10/13 07:58:44;;;;;;;1999.90;999.90;;;12.10;99.90;;;;;;5118527;27;20035;-67
2022/10/13 08:01:10;;;;;;;1999.90;999.90;;;12.20;99.90;;;;;;5109119;27;20043;-64
2022/10/13 08:03:35;;;;;;;1999.90;999.90;;;12.30;99.90;;;;;;5089431;28;20084;-66
2022/10/13 08:06:03;;;;;;;1999.90;999.90;;;12.40;99.90;;;;;;5100577;28;20435;-64
2022/10/13 08:08:30;;;;;;;1999.90;999.90;;;12.50;99.90;;;;;;5108124;28;20035;-65
2022/10/13 08:11:01;;;;;;;1999.90;999.90;;;12.60;99.90;;;;;;5108396;28;20050;-67
2022/10/13 08:13:26;;;;;;;1999.90;999.90;;;12.60;99.90;;;;;;5113528;27;20043;-67
2022/10/13 08:15:52;;;;;;;1999.90;999.90;;;12.60;99.90;;;;;;5091606;28;20032;-64
2022/10/13 08:18:17;;;;;;;1999.90;999.90;;;12.60;99.90;;;;;;5079754;27;20437;-64
2022/10/13 08:20:44;;;;;;;1999.90;999.90;;;12.60;99.90;;;;;;5099868;28;20043;-64
2022/10/13 08:23:11;;;;;;;1999.90;999.90;;;12.60;99.90;;;;;;5100009;27;20039;-66
2022/10/13 08:25:38;;;;;;;1999.90;999.90;;;12.50;99.90;;;;;;5109146;27;20047;-67
2022/10/13 08:28:05;;;;;;;1999.90;999.90;;;12.50;99.90;;;;;;5085157;28;20047;-65
2022/10/13 08:30:30;;;;;;;1999.90;999.90;;;12.50;99.90;;;;;;5090296;28;20055;-66
2022/10/13 08:32:56;;;;;;;1999.90;999.90;;;12.60;99.90;;;;;;5087808;28;20476;-66
2022/10/13 08:35:21;;;;;;;1999.90;999.90;;;12.70;99.90;;;;;;5113559;27;20032;-64
2022/10/13 08:37:47;;;;;;;1999.90;999.90;;;12.60;99.90;;;;;;5114755;27;20046;-65
2022/10/13 08:40:19;;;;;;;1999.90;999.90;;;12.70;99.90;;;;;;5088866;28;20039;-64
2022/10/13 08:42:45;;;;;;;1999.90;999.90;;;12.70;99.90;;;;;;5086015;28;20453;-64
2022/10/13 08:45:22;;;;;;;1999.90;999.90;;;12.70;99.90;;;;;;5076553;27;20059;-65
2022/10/13 08:47:56;;;;;;;1999.90;999.90;;;12.70;99.90;;;;;;5110294;27;20046;-65
2022/10/13 08:50:25;;;;;;;1999.90;999.90;;;12.80;99.90;;;;;;5114188;27;20500;-64
2022/10/13 08:53:24;;;;;;;1999.90;999.90;;;12.80;99.90;;;;;;5106151;27;20044;-65
2022/10/13 08:56:11;;;;;;;1999.90;999.90;;;12.80;99.90;;;;;;5085472;28;20152;-65
2022/10/13 08:58:40;;;;;;;1999.90;999.90;;;12.80;99.90;;;;;;5085732;28;20043;-65
2022/10/13 09:01:09;;;;;;;1999.90;999.90;;;12.90;99.90;;;;;;5090509;28;20469;-65
2022/10/13 09:03:52;;;;;;;1999.90;999.90;;;12.90;99.90;;;;;;5103911;28;20042;-65
2022/10/13 09:06:27;;;;;;;1999.90;999.90;;;12.90;99.90;;;;;;5115204;28;20047;-65
2022/10/13 09:09:05;;;;;;;1999.90;999.90;;;12.90;99.90;;;;;;5102437;28;20096;-65
2022/10/13 09:11:34;;;;;;;1999.90;999.90;;;12.90;99.90;;;;;;5077589;28;20138;-65
2022/10/13 09:14:03;;;;;;;1999.90;999.90;;;13.00;99.90;;;;;;5094731;28;20379;-65
2022/10/13 09:16:41;;;;;;;1999.90;999.90;;;13.00;99.90;;;;;;5073428;28;20039;-65
2022/10/13 09:19:23;;;;;;;1999.90;999.90;;;13.00;99.90;;;;;;5090817;28;20036;-65
2022/10/13 09:21:50;;;;;;;1999.90;999.90;;;13.10;99.90;;;;;;5094052;28;20047;-64
2022/10/13 09:24:19;;;;;;;1999.90;999.90;;;13.10;99.90;;;;;;5108248;28;20040;-64
2022/10/13 09:26:47;;;;;;;1999.90;999.90;;;13.10;99.90;;;;;;5087602;28;20096;-65
2022/10/13 09:29:38;;;;;;;1999.90;999.90;;;13.20;99.90;;;;;;5102257;28;20513;-65
2022/10/13 09:32:19;;;;;;;1999.90;999.90;;;13.20;99.90;;;;;;5115330;28;20058;-65
2022/10/13 09:34:45;;;;;;;1999.90;999.90;;;13.20;99.90;;;;;;5088599;28;20438;-65
2022/10/13 09:37:20;;;;;;;1999.90;999.90;;;13.20;99.90;;;;;;5115704;28;20145;-65
2022/10/13 09:40:11;;;;;;;1999.90;999.90;;;13.30;99.90;;;;;;5115471;28;20122;-67
2022/10/13 09:42:37;;;;;;;1999.90;999.90;;;13.30;99.90;;;;;;5090671;28;20047;-66
2022/10/13 09:45:19;;;;;;;1999.90;999.90;;;13.30;99.90;;;;;;5087970;28;20569;-66
2022/10/13 09:47:49;;;;;;;1999.90;999.90;;;13.40;99.90;;;;;;5091435;28;20069;-65
2022/10/13 09:50:17;;;;;;;1999.90;999.90;;;13.40;99.90;;;;;;5101241;28;20036;-65
2022/10/13 09:52:46;;;;;;;1999.90;999.90;;;13.40;99.90;;;;;;5099529;28;20074;-65
2022/10/13 09:55:47;;;;;;;1999.90;999.90;;;13.50;99.90;;;;;;5095662;27;20078;-65
2022/10/13 09:58:27;;;;;;;1999.90;999.90;;;13.50;99.90;;;;;;5054406;28;20973;-65
2022/10/13 10:00:53;;;;;;;1999.90;999.90;;;13.60;99.90;;;;;;5075599;28;20059;-65
2022/10/13 10:03:23;;;;;;;1999.90;999.90;;;13.70;99.90;;;;;;5096647;28;20047;-65
2022/10/13 10:05:55;;;;;;;1999.90;999.90;;;13.80;99.90;;;;;;5101644;27;20047;-65
2022/10/13 10:08:54;;;;;;;1999.90;999.90;;;13.80;99.90;;;;;;5107607;27;20539;-65
2022/10/13 10:11:26;;;;;;;1999.90;999.90;;;13.80;99.90;;;;;;5084909;28;20048;-65
2022/10/13 10:13:52;;;;;;;1999.90;999.90;;;13.90;99.90;;;;;;5114365;27;20050;-65
2022/10/13 10:16:44;;;;;;;1999.90;999.90;;;13.90;99.90;;;;;;5112316;27;20385;-65
2022/10/13 10:19:21;;;;;;;1999.90;999.90;;;13.90;99.90;;;;;;5092469;27;20393;-65
2022/10/13 10:21:57;;;;;;;1999.90;999.90;;;13.90;99.90;;;;;;5111270;27;20062;-65
2022/10/13 10:24:36;;;;;;;1999.90;999.90;;;13.90;99.90;;;;;;5109550;27;20066;-65
2022/10/13 10:27:24;;;;;;;1999.90;999.90;;;13.90;99.90;;;;;;5097225;28;20532;-65
2022/10/13 10:30:11;;;;;;;1999.90;999.90;;;13.90;99.90;;;;;;5091430;28;20501;-65
2022/10/13 10:32:53;;;;;;;1999.90;999.90;;;13.80;99.90;;;;;;5078492;28;20126;-65
2022/10/13 10:35:56;;;;;;;1999.90;999.90;;;13.80;99.90;;;;;;5103148;27;20035;-65
2022/10/13 10:38:30;;;;;;;1999.90;999.90;;;13.80;99.90;;;;;;5090791;27;20047;-65
2022/10/13 10:41:16;;;;;;;1999.90;999.90;;;13.80;99.90;;;;;;5096968;28;20493;-66
2022/10/13 10:44:00;;;;;;;1999.90;999.90;;;13.80;99.90;;;;;;5063895;27;20051;-65
2022/10/13 10:46:34;;;;;;;1999.90;999.90;;;13.80;99.90;;;;;;5101451;28;20482;-65
2022/10/13 10:49:09;;;;;;;1999.90;999.90;;;13.70;99.90;;;;;;5110045;27;20449;-65
2022/10/13 10:51:36;;;;;;;1999.90;999.90;;;13.70;99.90;;;;;;5093916;27;21537;-65
2022/10/13 10:54:24;;;;;;;1999.90;999.90;;;13.70;99.90;;;;;;5107257;27;20043;-66
2022/10/13 10:57:02;;;;;;;1999.90;999.90;;;13.70;99.90;;;;;;5089732;28;20050;-65
2022/10/13 10:59:49;;;;;;;1999.90;999.90;;;13.80;99.90;;;;;;5099146;27;20047;-65
2022/10/13 11:02:44;;;;;;;1999.90;999.90;;;13.80;99.90;;;;;;5077575;28;20051;-66
2022/10/13 11:05:10;;;;;;;1999.90;999.90;;;13.80;99.90;;;;;;5080513;28;20291;-65
2022/10/13 11:07:39;;;;;;;1999.90;999.90;;;13.90;99.90;;;;;;5090342;28;20469;-65
2022/10/13 11:10:20;;;;;;;1999.90;999.90;;;13.90;99.90;;;;;;5087307;28;20108;-65
2022/10/13 11:13:07;;;;;;;1999.90;999.90;;;14.00;99.90;;;;;;5103409;28;20039;-65
2022/10/13 11:15:44;;;;;;;1999.90;999.90;;;14.20;99.90;;;;;;5108025;27;20035;-65
2022/10/13 11:18:47;;;;;;;1999.90;999.90;;;14.30;99.90;;;;;;5094246;27;20042;-65
2022/10/13 11:21:13;;;;;;;1999.90;999.90;;;14.50;99.90;;;;;;5104906;27;20120;-65
2022/10/13 11:23:45;;;;;;;1999.90;999.90;;;14.60;99.90;;;;;;5107664;27;20544;-65
2022/10/13 11:26:39;;;;;;;1999.90;999.90;;;14.70;99.90;;;;;;5110800;27;20043;-65
2022/10/13 11:29:15;;;;;;;1999.90;999.90;;;14.70;99.90;;;;;;5105050;27;20408;-66
2022/10/13 11:31:51;;;;;;;1999.90;999.90;;;14.70;99.90;;;;;;5101367;27;20035;-66
2022/10/13 11:34:27;;;;;;;1999.90;999.90;;;14.70;99.90;;;;;;5111189;27;20076;-65
2022/10/13 11:36:55;;;;;;;1999.90;999.90;;;14.70;99.90;;;;;;5093455;27;20471;-66
2022/10/13 11:39:26;;;;;;;1999.90;999.90;;;14.80;99.90;;;;;;5102765;28;20485;-65
2022/10/13 11:42:22;;;;;;;1999.90;999.90;;;14.70;99.90;;;;;;5087571;28;20090;-65
2022/10/13 11:44:57;;;;;;;1999.90;999.90;;;14.80;99.90;;;;;;5086034;27;20535;-66
2022/10/13 11:47:56;;;;;;;1999.90;999.90;;;14.80;99.90;;;;;;5094748;28;20395;-65
2022/10/13 11:50:35;;;;;;;1999.90;999.90;;;14.80;99.90;;;;;;5109722;27;20043;-65
2022/10/13 11:53:10;;;;;;;1999.90;999.90;;;14.80;99.90;;;;;;5087508;28;20482;-65
2022/10/13 11:56:02;;;;;;;1999.90;999.90;;;14.80;99.90;;;;;;5112270;27;20031;-65
2022/10/13 11:58:30;;;;;;;1999.90;999.90;;;14.80;99.90;;;;;;5082982;28;20050;-65
2022/10/13 12:01:10;;;;;;;1999.90;999.90;;;14.80;99.90;;;;;;5110815;27;20043;-65
2022/10/13 12:03:38;;;;;;;1999.90;999.90;;;14.80;99.90;;;;;;5108405;27;20039;-65
2022/10/13 12:06:32;;;;;;;1999.90;999.90;;;14.90;99.90;;;;;;5088906;27;20571;-65
2022/10/13 12:09:04;;;;;;;1999.90;999.90;;;14.90;99.90;;;;;;5093118;28;20052;-65
2022/10/13 12:11:34;;;;;;;1999.90;999.90;;;14.90;99.90;;;;;;5108046;28;20048;-65
2022/10/13 12:14:00;;;;;;;1999.90;999.90;;;15.00;99.90;;;;;;5112951;27;20039;-65
2022/10/13 12:16:27;;;;;;;1999.90;999.90;;;15.00;99.90;;;;;;5109748;27;20050;-65
2022/10/13 12:19:05;;;;;;;1999.90;999.90;;;15.00;99.90;;;;;;5128017;27;20039;-65
2022/10/13 12:21:31;;;;;;;1999.90;999.90;;;14.90;99.90;;;;;;5111797;27;20110;-65